createdAt,value
2022-10-16T00:04:00.940Z,91
2022-10-16T00:09:01.081Z,91
2022-10-16T00:14:00.468Z,91
2022-10-16T00:19:00.854Z,92
2022-10-16T00:24:00.557Z,92
2022-10-16T00:29:00.389Z,92
2022-10-16T00:34:01.095Z,92
2022-10-16T00:44:00.251Z,91
2022-10-16T00:49:00.762Z,91
2022-10-16T00:54:00.265Z,91
2022-10-16T00:59:00.704Z,91
2022-10-16T01:04:01.206Z,91
2022-10-16T01:09:00.367Z,91
2022-10-16T01:14:00.473Z,91
2022-10-16T01:19:01.198Z,91
2022-10-16T01:24:00.724Z,91
2022-10-16T01:29:01.322Z,90
2022-10-16T01:34:01.094Z,90
2022-10-16T01:39:00.581Z,90
2022-10-16T01:44:00.589Z,90
2022-10-16T01:49:00.282Z,90
2022-10-16T01:54:00.565Z,90
2022-10-16T01:59:00.497Z,89
2022-10-16T02:04:01.355Z,89
2022-10-16T02:09:01.023Z,89
2022-10-16T02:14:00.741Z,89
2022-10-16T02:19:00.899Z,89
2022-10-16T02:24:00.480Z,89
2022-10-16T02:29:01.386Z,89
2022-10-16T02:34:00.597Z,89
2022-10-16T02:39:01.262Z,89
2022-10-16T02:44:00.732Z,89
2022-10-16T02:49:00.898Z,89
2022-10-16T02:54:01.121Z,89
2022-10-16T02:59:01.011Z,89
2022-10-16T03:04:01.194Z,89
2022-10-16T03:09:00.841Z,89
2022-10-16T03:14:00.678Z,89
2022-10-16T03:19:00.785Z,89
2022-10-16T03:24:00.352Z,89
2022-10-16T03:29:00.772Z,89
2022-10-16T03:34:00.835Z,89
2022-10-16T03:39:01.264Z,88
2022-10-16T03:44:01.258Z,88
2022-10-16T03:49:07.543Z,89
2022-10-16T03:54:00.742Z,89
2022-10-16T03:59:00.985Z,89
2022-10-16T04:04:00.607Z,89
2022-10-16T04:09:00.963Z,89
2022-10-16T04:14:00.929Z,89
2022-10-16T04:19:01.314Z,90
2022-10-16T04:24:01.290Z,90
2022-10-16T04:29:01.455Z,89
2022-10-16T04:34:01.367Z,89
2022-10-16T04:39:00.922Z,90
2022-10-16T04:44:00.509Z,90
2022-10-16T04:49:00.787Z,90
2022-10-16T04:54:00.655Z,90
2022-10-16T04:59:00.633Z,90
2022-10-16T05:04:00.905Z,90
2022-10-16T05:09:00.658Z,90
2022-10-16T05:14:00.924Z,90
2022-10-16T05:19:28.971Z,90
2022-10-16T05:24:00.812Z,90
2022-10-16T05:29:01.680Z,90
2022-10-16T05:34:00.370Z,90
2022-10-16T05:39:01.197Z,90
2022-10-16T05:44:00.970Z,90
2022-10-16T05:49:00.721Z,90
2022-10-16T05:54:01.343Z,90
2022-10-16T05:59:01.094Z,90
2022-10-16T06:04:01.015Z,90
2022-10-16T06:09:00.587Z,91
2022-10-16T06:14:00.394Z,91
2022-10-16T06:19:00.991Z,91
2022-10-16T06:24:00.590Z,91
2022-10-16T06:29:01.555Z,91
2022-10-16T06:34:01.563Z,91
2022-10-16T06:39:00.951Z,91
2022-10-16T06:44:00.562Z,91
2022-10-16T06:49:01.233Z,91
2022-10-16T06:54:04.604Z,91
2022-10-16T06:59:01.318Z,91
2022-10-16T07:04:00.834Z,91
2022-10-16T07:09:01.327Z,91
2022-10-16T07:14:00.603Z,91
2022-10-16T07:19:01.705Z,90
2022-10-16T07:24:01.264Z,90
2022-10-16T07:29:01.082Z,89
2022-10-16T07:34:01.106Z,89
2022-10-16T07:39:01.387Z,89
2022-10-16T07:44:01.475Z,89
2022-10-16T07:49:00.842Z,88
2022-10-16T07:54:00.451Z,88
2022-10-16T07:59:01.123Z,87
2022-10-16T08:04:00.936Z,87
2022-10-16T08:09:00.496Z,88
2022-10-16T08:14:01.040Z,88
2022-10-16T08:19:01.466Z,88
2022-10-16T08:24:01.207Z,88
2022-10-16T08:29:00.923Z,88
2022-10-16T08:34:01.441Z,88
2022-10-16T08:39:00.976Z,87
2022-10-16T08:44:00.633Z,87
2022-10-16T08:49:01.360Z,87
2022-10-16T08:54:01.083Z,87
2022-10-16T08:59:03.476Z,86
2022-10-16T09:04:01.223Z,86
2022-10-16T09:09:00.913Z,85
2022-10-16T09:14:01.097Z,85
2022-10-16T09:19:01.471Z,84
2022-10-16T09:24:01.222Z,84
2022-10-16T09:29:01.146Z,82
2022-10-16T09:34:01.311Z,82
2022-10-16T09:39:01.093Z,82
2022-10-16T09:44:01.098Z,82
2022-10-16T09:49:00.727Z,81
2022-10-16T09:54:00.846Z,81
2022-10-16T09:59:01.374Z,80
2022-10-16T10:04:00.761Z,80
2022-10-16T10:09:01.459Z,80
2022-10-16T10:14:01.102Z,80
2022-10-16T10:19:00.581Z,80
2022-10-16T10:24:00.940Z,80
2022-10-16T10:29:00.628Z,79
2022-10-16T10:34:01.406Z,79
2022-10-16T10:39:01.099Z,79
2022-10-16T10:44:01.464Z,79
2022-10-16T10:49:00.672Z,77
2022-10-16T10:54:01.318Z,77
2022-10-16T10:59:00.577Z,77
2022-10-16T11:04:03.046Z,77
2022-10-16T11:09:02.206Z,75
2022-10-16T11:14:01.616Z,75
2022-10-16T11:19:01.011Z,74
2022-10-16T11:24:00.612Z,74
2022-10-16T11:29:01.488Z,72
2022-10-16T11:39:01.238Z,72
2022-10-16T11:44:01.367Z,72
2022-10-16T11:49:00.797Z,72
2022-10-16T11:54:01.305Z,72
2022-10-16T11:59:01.529Z,70
2022-10-16T12:04:01.234Z,70
2022-10-16T12:09:01.522Z,70
2022-10-16T12:14:01.361Z,70
2022-10-16T12:19:01.447Z,69
2022-10-16T12:24:00.613Z,69
2022-10-16T12:29:01.234Z,68
2022-10-16T12:34:00.632Z,68
2022-10-16T12:39:00.906Z,67
2022-10-16T12:44:00.755Z,67
2022-10-16T12:49:08.566Z,68
2022-10-16T12:54:00.900Z,68
2022-10-16T12:59:01.272Z,68
2022-10-16T13:04:00.643Z,68
2022-10-16T13:09:01.537Z,68
2022-10-16T13:14:01.418Z,68
2022-10-16T13:19:01.038Z,67
2022-10-16T13:24:00.888Z,67
2022-10-16T13:29:01.880Z,66
2022-10-16T13:34:01.636Z,66
2022-10-16T13:39:01.450Z,65
2022-10-16T13:44:00.955Z,65
2022-10-16T13:49:01.802Z,67
2022-10-16T13:54:01.674Z,67
2022-10-16T13:59:01.124Z,68
2022-10-16T14:04:00.866Z,68
2022-10-16T14:09:01.309Z,67
2022-10-16T14:14:01.364Z,67
2022-10-16T14:19:01.290Z,66
2022-10-16T14:24:01.105Z,66
2022-10-16T14:29:01.107Z,67
2022-10-16T14:34:00.738Z,67
2022-10-16T14:39:01.485Z,67
2022-10-16T14:44:01.619Z,67
2022-10-16T14:49:01.628Z,68
2022-10-16T14:54:00.964Z,68
2022-10-16T14:59:01.581Z,69
2022-10-16T15:04:01.542Z,69
2022-10-16T15:09:01.247Z,69
2022-10-16T15:14:02.087Z,69
2022-10-16T15:19:01.308Z,69
2022-10-16T15:24:01.555Z,69
2022-10-16T15:29:01.548Z,69
2022-10-16T15:34:01.689Z,69
2022-10-16T15:39:00.777Z,70
2022-10-16T15:44:01.253Z,70
2022-10-16T15:49:01.257Z,72
2022-10-16T15:54:01.065Z,72
2022-10-16T15:59:01.608Z,73
2022-10-16T16:04:04.666Z,73
2022-10-16T16:14:01.383Z,74
2022-10-16T16:19:01.167Z,73
2022-10-16T16:24:00.904Z,73
2022-10-16T16:29:01.957Z,74
2022-10-16T16:34:01.351Z,74
2022-10-16T16:39:01.235Z,74
2022-10-16T16:44:01.745Z,74
2022-10-16T16:49:01.118Z,73
2022-10-16T16:54:01.436Z,73
2022-10-16T16:59:01.605Z,74
2022-10-16T17:04:00.861Z,74
2022-10-16T17:09:01.210Z,75
2022-10-16T17:14:01.581Z,75
2022-10-16T17:19:00.918Z,76
2022-10-16T17:24:01.622Z,76
2022-10-16T17:29:01.546Z,76
2022-10-16T17:34:01.195Z,76
2022-10-16T17:39:01.298Z,77
2022-10-16T17:44:01.585Z,77
2022-10-16T17:49:01.959Z,77
2022-10-16T17:54:01.639Z,77
2022-10-16T17:59:01.271Z,78
2022-10-16T18:04:00.957Z,78
2022-10-16T18:09:01.775Z,78
2022-10-16T18:14:01.563Z,78
2022-10-16T18:19:00.979Z,79
2022-10-16T18:24:01.540Z,79
2022-10-16T18:29:01.291Z,79
2022-10-16T18:34:01.837Z,79
2022-10-16T18:39:01.019Z,80
2022-10-16T18:44:00.994Z,80
2022-10-16T18:49:01.908Z,80
2022-10-16T18:54:01.585Z,80
2022-10-16T18:59:01.048Z,81
2022-10-16T19:04:01.624Z,81
2022-10-16T19:09:01.309Z,81
2022-10-16T19:14:01.097Z,81
2022-10-16T19:19:01.842Z,82
2022-10-16T19:24:01.813Z,82
2022-10-16T19:29:01.669Z,81
2022-10-16T19:34:01.320Z,81
2022-10-16T19:39:01.254Z,83
2022-10-16T19:44:01.762Z,83
2022-10-16T19:49:01.232Z,83
2022-10-16T19:54:01.476Z,83
2022-10-16T19:59:01.620Z,84
2022-10-16T20:04:01.785Z,84
2022-10-16T20:09:01.035Z,85
2022-10-16T20:14:01.419Z,85
2022-10-16T20:19:01.784Z,85
2022-10-16T20:24:01.193Z,85
2022-10-16T20:29:01.469Z,86
2022-10-16T20:34:01.759Z,86
2022-10-16T20:39:01.778Z,86
2022-10-16T20:44:01.289Z,86
2022-10-16T20:49:27.931Z,86
2022-10-16T20:54:01.324Z,86
2022-10-16T20:59:01.748Z,87
2022-10-16T21:04:01.291Z,87
2022-10-16T21:09:01.666Z,87
2022-10-16T21:14:01.452Z,87
2022-10-16T21:19:01.647Z,87
2022-10-16T21:24:01.414Z,87
2022-10-16T21:29:01.909Z,87
2022-10-16T21:34:01.280Z,87
2022-10-16T21:39:01.689Z,88
2022-10-16T21:44:02.008Z,88
2022-10-16T21:49:01.285Z,88
2022-10-16T21:54:01.088Z,88
2022-10-16T21:59:01.470Z,88
2022-10-16T22:04:01.733Z,88
2022-10-16T22:09:01.435Z,88
2022-10-16T22:14:00.975Z,88
2022-10-16T22:19:01.551Z,89
2022-10-16T22:24:00.995Z,89
2022-10-16T22:29:01.943Z,89
2022-10-16T22:34:01.272Z,89
2022-10-16T22:39:01.044Z,89
2022-10-16T22:44:01.388Z,89
2022-10-16T22:49:01.689Z,89
2022-10-16T22:54:01.880Z,89
2022-10-16T22:59:01.159Z,90
2022-10-16T23:04:01.835Z,90
2022-10-16T23:09:01.088Z,90
2022-10-16T23:14:11.498Z,90
2022-10-16T23:19:01.876Z,90
2022-10-16T23:24:01.432Z,90
2022-10-16T23:29:01.989Z,91
2022-10-16T23:34:01.385Z,91
2022-10-16T23:39:01.155Z,91
2022-10-16T23:44:01.415Z,91
2022-10-16T23:49:01.654Z,92
2022-10-16T23:54:01.157Z,92
2022-10-16T23:59:01.573Z,92
